Time;durP1;ratioP1;P1;durP2;ratioP2;P2;SDS_P1;SDS_P2;PMS_P1;PMS_P2;Temp;Humidity;BMP_temperature;BMP_pressure;BME280_temperature;BME280_humidity;BME280_pressure;Samples;Min_cycle;Max_cycle;Signal;HPM_P1;HPM_P2
2023/08/22 00:00:32;;;;;;;7.88;5.22;;;17.40;99.90;;;;;;5066925;28;20032;-61
2023/08/22 00:02:58;;;;;;;9.25;5.47;;;18.00;99.90;;;;;;5070047;28;20124;-61
2023/08/22 00:05:24;;;;;;;9.50;4.85;;;17.70;99.90;;;;;;5077422;28;20155;-61
2023/08/22 00:07:50;;;;;;;7.75;5.18;;;18.40;99.90;;;;;;5080262;28;20043;-60
2023/08/22 00:10:16;;;;;;;8.40;4.57;;;17.30;99.90;;;;;;5079277;28;20520;-61
2023/08/22 00:12:43;;;;;;;10.43;5.40;;;18.30;99.90;;;;;;5076762;28;20045;-61
2023/08/22 00:15:10;;;;;;;8.98;5.00;;;18.10;99.90;;;;;;5085779;28;20075;-61
2023/08/22 00:17:43;;;;;;;9.73;5.63;;;18.40;99.90;;;;;;5075896;28;20045;-61
2023/08/22 00:20:13;;;;;;;9.38;5.60;;;17.40;99.90;;;;;;5075926;28;20052;-61
2023/08/22 00:22:39;;;;;;;8.68;5.40;;;18.20;99.90;;;;;;5069970;28;20037;-61
2023/08/22 00:25:05;;;;;;;11.27;5.35;;;17.10;99.90;;;;;;5071096;28;20090;-61
2023/08/22 00:27:31;;;;;;;9.05;6.13;;;18.10;99.90;;;;;;5069775;28;20370;-61
2023/08/22 00:29:57;;;;;;;12.57;5.43;;;17.30;99.90;;;;;;5073603;28;20037;-61
2023/08/22 00:32:24;;;;;;;8.38;5.35;;;18.40;99.90;;;;;;5080397;28;20102;-60
2023/08/22 00:34:50;;;;;;;10.05;5.53;;;17.90;1.00;;;;;;5079265;28;20119;-58
2023/08/22 00:37:15;;;;;;;8.80;5.35;;;18.60;1.00;;;;;;5071881;28;20187;-58
2023/08/22 00:39:41;;;;;;;10.50;5.43;;;18.10;1.00;;;;;;5077781;28;20040;-58
2023/08/22 00:42:07;;;;;;;8.75;4.68;;;;;;;;;;5074572;28;20028;-60
2023/08/22 00:44:33;;;;;;;8.32;4.75;;;17.90;1.00;;;;;;5074999;28;20178;-59
2023/08/22 00:46:59;;;;;;;8.68;4.78;;;17.90;1.00;;;;;;5074545;28;20116;-60
2023/08/22 00:49:26;;;;;;;7.40;4.88;;;17.50;1.00;;;;;;5073226;28;20089;-59
2023/08/22 00:51:52;;;;;;;8.73;5.30;;;17.30;1.00;;;;;;5065631;28;20144;-59
2023/08/22 00:54:19;;;;;;;9.15;5.60;;;17.70;1.00;;;;;;5070989;28;20032;-60
2023/08/22 00:56:46;;;;;;;8.68;5.80;;;18.00;1.00;;;;;;5069836;28;20521;-59
2023/08/22 00:59:12;;;;;;;8.63;5.28;;;18.20;1.00;;;;;;5074815;28;20092;-59
2023/08/22 01:01:38;;;;;;;8.32;5.35;;;18.00;1.00;;;;;;5080680;28;20043;-59
2023/08/22 01:04:04;;;;;;;7.68;4.70;;;17.70;1.00;;;;;;5081916;28;20036;-58
2023/08/22 01:06:47;;;;;;;9.38;4.78;;;17.20;1.00;;;;;;5070097;28;20044;-60
2023/08/22 01:09:33;;;;;;;10.25;5.80;;;17.30;1.00;;;;;;5072408;28;20046;-60
2023/08/22 01:12:20;;;;;;;9.52;5.25;;;18.50;1.00;;;;;;5073221;28;20028;-60
2023/08/22 01:14:55;;;;;;;9.45;5.20;;;17.80;1.00;;;;;;5079166;28;20044;-60
2023/08/22 01:17:22;;;;;;;10.10;5.47;;;17.60;1.00;;;;;;5065743;28;20510;-60
2023/08/22 01:19:48;;;;;;;9.65;5.53;;;17.60;1.00;;;;;;5068715;28;20036;-60
2023/08/22 01:22:14;;;;;;;9.73;5.50;;;17.90;1.00;;;;;;5081029;28;20338;-60
2023/08/22 01:24:39;;;;;;;9.13;5.60;;;17.50;1.00;;;;;;5078041;28;20033;-60
2023/08/22 01:27:08;;;;;;;10.20;5.50;;;17.20;1.00;;;;;;5068434;28;20068;-60
2023/08/22 01:29:41;;;;;;;9.07;5.30;;;17.60;1.00;;;;;;5072150;28;20040;-60
2023/08/22 01:32:16;;;;;;;8.80;5.93;;;17.30;1.00;;;;;;5072778;28;20419;-60
2023/08/22 01:34:42;;;;;;;10.57;5.80;;;17.50;1.00;;;;;;5070567;28;20040;-60
2023/08/22 01:37:10;;;;;;;10.57;6.35;;;17.40;1.00;;;;;;5071470;28;20086;-60
2023/08/22 01:39:39;;;;;;;9.20;6.00;;;18.10;1.00;;;;;;5079320;28;20111;-60
2023/08/22 01:42:05;;;;;;;9.75;6.75;;;17.20;1.00;;;;;;5078322;28;20141;-60
2023/08/22 01:44:31;;;;;;;9.20;6.00;;;17.40;1.00;;;;;;5063152;28;20072;-60
2023/08/22 01:46:57;;;;;;;10.75;5.53;;;17.00;1.00;;;;;;5073252;28;20075;-59
2023/08/22 01:49:22;;;;;;;12.65;6.85;;;17.40;1.00;;;;;;5072704;28;20102;-60
2023/08/22 01:51:48;;;;;;;8.23;5.57;;;17.30;1.00;;;;;;5076691;28;20044;-60
2023/08/22 01:54:14;;;;;;;11.10;6.65;;;17.30;28.00;;;;;;5077642;28;20029;-60
2023/08/22 01:56:40;;;;;;;10.80;6.80;;;17.30;53.60;;;;;;5082259;28;20032;-60
2023/08/22 01:59:05;;;;;;;10.20;6.57;;;17.30;98.00;;;;;;5075007;28;20082;-60
2023/08/22 02:01:31;;;;;;;12.02;6.72;;;17.50;99.90;;;;;;5068157;28;20032;-60
2023/08/22 02:04:03;;;;;;;13.40;6.57;;;17.50;99.90;;;;;;5072943;28;20032;-60
2023/08/22 02:06:28;;;;;;;9.23;6.50;;;17.20;99.90;;;;;;5062662;28;20040;-60
2023/08/22 02:08:54;;;;;;;12.93;6.88;;;17.40;99.90;;;;;;5074019;28;20036;-60
2023/08/22 02:11:20;;;;;;;10.40;6.68;;;17.40;99.90;;;;;;5066292;28;20101;-58
2023/08/22 02:13:46;;;;;;;9.57;6.57;;;17.10;99.90;;;;;;5065368;28;20463;-59
2023/08/22 02:16:12;;;;;;;12.38;6.20;;;17.40;99.90;;;;;;5074664;28;20043;-60
2023/08/22 02:18:37;;;;;;;8.93;5.68;;;16.90;99.90;;;;;;5075806;28;20028;-60
2023/08/22 02:21:03;;;;;;;9.20;6.03;;;16.80;99.90;;;;;;5079771;28;20470;-60
2023/08/22 02:23:29;;;;;;;9.93;5.28;;;16.80;99.90;;;;;;5067770;28;20036;-60
2023/08/22 02:25:55;;;;;;;11.40;6.93;;;17.00;99.90;;;;;;5071588;28;20047;-60
2023/08/22 02:28:20;;;;;;;8.68;5.85;;;16.90;99.90;;;;;;5077862;28;20147;-60
2023/08/22 02:30:46;;;;;;;10.10;6.80;;;16.90;99.90;;;;;;5079770;28;20123;-61
2023/08/22 02:33:12;;;;;;;10.07;6.70;;;16.80;99.90;;;;;;5071856;28;20167;-61
2023/08/22 02:35:37;;;;;;;10.27;6.70;;;17.10;99.90;;;;;;5077575;28;20048;-60
2023/08/22 02:38:03;;;;;;;11.27;6.53;;;17.00;99.90;;;;;;5069340;28;20485;-59
2023/08/22 02:40:29;;;;;;;9.07;6.07;;;16.20;99.90;;;;;;5078335;28;20032;-60
2023/08/22 02:42:54;;;;;;;12.20;6.45;;;17.30;99.90;;;;;;5073083;28;20036;-60
2023/08/22 02:45:20;;;;;;;11.77;6.05;;;17.10;99.90;;;;;;5068912;28;20041;-58
2023/08/22 02:47:46;;;;;;;11.48;6.63;;;17.00;99.90;;;;;;5078065;28;20114;-59
2023/08/22 02:50:11;;;;;;;10.73;6.18;;;16.70;99.90;;;;;;5070435;28;20409;-59
2023/08/22 02:52:37;;;;;;;11.98;5.93;;;16.90;99.90;;;;;;5072351;28;20044;-60
2023/08/22 02:55:03;;;;;;;9.82;6.35;;;17.10;99.90;;;;;;5075104;28;20029;-59
2023/08/22 02:57:29;;;;;;;13.02;6.35;;;17.00;99.90;;;;;;5073922;28;20086;-60
2023/08/22 02:59:54;;;;;;;9.27;6.07;;;17.00;99.90;;;;;;5080081;28;20076;-60
2023/08/22 03:02:20;;;;;;;12.63;7.00;;;17.00;99.90;;;;;;5069579;28;20060;-60
2023/08/22 03:04:45;;;;;;;14.05;6.90;;;17.30;99.90;;;;;;5075744;28;20078;-59
2023/08/22 03:07:11;;;;;;;13.48;6.85;;;17.20;99.90;;;;;;5073442;28;20040;-59
2023/08/22 03:09:39;;;;;;;11.00;6.40;;;17.20;99.90;;;;;;5078150;28;20068;-60
2023/08/22 03:12:05;;;;;;;10.93;6.80;;;16.90;99.90;;;;;;5071180;28;20042;-60
2023/08/22 03:14:31;;;;;;;11.82;6.85;;;17.00;99.90;;;;;;5078689;28;20123;-60
2023/08/22 03:16:57;;;;;;;13.82;8.85;;;16.90;99.90;;;;;;5065999;28;20040;-60
2023/08/22 03:19:22;;;;;;;11.93;8.95;;;17.10;99.90;;;;;;5076889;28;20439;-60
2023/08/22 03:21:48;;;;;;;14.32;8.40;;;17.00;99.90;;;;;;5078260;28;20074;-60
2023/08/22 03:24:13;;;;;;;13.68;9.20;;;16.80;99.90;;;;;;5067781;28;20139;-60
2023/08/22 03:26:39;;;;;;;14.75;8.88;;;17.20;99.90;;;;;;5072460;28;20447;-60
2023/08/22 03:29:05;;;;;;;12.15;7.82;;;16.90;99.90;;;;;;5073675;28;20068;-60
2023/08/22 03:31:30;;;;;;;12.90;7.88;;;17.00;99.90;;;;;;5071224;28;20052;-59
2023/08/22 03:33:56;;;;;;;12.52;7.70;;;17.00;99.90;;;;;;5068851;28;20036;-60
2023/08/22 03:36:22;;;;;;;12.68;8.13;;;17.20;99.90;;;;;;5067511;28;20123;-59
2023/08/22 03:38:51;;;;;;;13.85;8.15;;;17.10;99.90;;;;;;5077414;28;20394;-60
2023/08/22 03:41:19;;;;;;;13.20;7.45;;;17.10;99.90;;;;;;5078986;28;20032;-60
2023/08/22 03:43:45;;;;;;;12.15;7.65;;;16.90;99.90;;;;;;5078474;28;20378;-59
2023/08/22 03:46:11;;;;;;;10.48;6.78;;;17.00;99.90;;;;;;5074045;28;20040;-59
2023/08/22 03:48:36;;;;;;;12.02;7.18;;;16.10;99.90;;;;;;5075844;28;20032;-60
2023/08/22 03:51:06;;;;;;;10.82;7.18;;;16.30;99.90;;;;;;5080567;28;20456;-60
2023/08/22 03:53:34;;;;;;;12.70;7.72;;;16.80;99.90;;;;;;5078055;28;20505;-59
2023/08/22 03:55:59;;;;;;;14.25;8.25;;;16.80;99.90;;;;;;5077625;28;20040;-60
2023/08/22 03:58:25;;;;;;;12.18;7.70;;;17.20;99.90;;;;;;5082432;28;20515;-59
2023/08/22 04:00:54;;;;;;;15.88;8.63;;;;;;;;;;5073576;28;20432;-60
2023/08/22 04:03:20;;;;;;;11.75;8.30;;;17.00;99.90;;;;;;5073328;28;20054;-60
2023/08/22 04:05:45;;;;;;;13.55;8.77;;;16.20;99.90;;;;;;5076166;28;20036;-60
2023/08/22 04:08:11;;;;;;;11.40;7.85;;;16.80;99.90;;;;;;5075359;28;20486;-60
2023/08/22 04:10:37;;;;;;;12.23;8.30;;;;;;;;;;5073005;28;20028;-60
2023/08/22 04:13:03;;;;;;;13.13;8.07;;;;;;;;;;5041279;28;20205;-60
2023/08/22 04:15:29;;;;;;;14.32;9.18;;;16.80;99.90;;;;;;5071931;28;20040;-58
2023/08/22 04:17:54;;;;;;;14.50;9.70;;;16.60;99.90;;;;;;5077153;28;20413;-59
2023/08/22 04:20:20;;;;;;;12.80;8.27;;;16.90;99.90;;;;;;5074869;28;20497;-59
2023/08/22 04:22:46;;;;;;;13.10;8.32;;;16.90;99.90;;;;;;5078702;28;20039;-60
2023/08/22 04:25:11;;;;;;;13.77;8.93;;;17.10;99.90;;;;;;5117973;22;20054;-64
2023/08/22 04:27:38;;;;;;;12.07;8.07;;;17.00;99.90;;;;;;5051797;28;20326;-64
2023/08/22 04:30:04;;;;;;;11.77;8.07;;;16.70;99.90;;;;;;5072971;28;20035;-65
2023/08/22 04:32:31;;;;;;;15.05;8.57;;;16.30;99.90;;;;;;5071840;28;20508;-65
2023/08/22 04:34:56;;;;;;;15.82;8.45;;;16.50;99.90;;;;;;5069048;28;20037;-65
2023/08/22 04:37:22;;;;;;;11.45;8.15;;;16.50;99.90;;;;;;5054429;28;20060;-63
2023/08/22 04:39:48;;;;;;;12.10;7.05;;;17.10;99.90;;;;;;5068408;28;20092;-64
2023/08/22 04:42:14;;;;;;;9.18;5.90;;;16.60;99.90;;;;;;5045833;28;20384;-64
2023/08/22 04:44:39;;;;;;;8.20;4.75;;;15.90;99.90;;;;;;5070097;28;20036;-65
2023/08/22 04:47:05;;;;;;;9.93;4.00;;;16.40;99.90;;;;;;5075274;28;20036;-64
2023/08/22 04:49:31;;;;;;;7.20;4.13;;;16.50;99.90;;;;;;5070346;28;20040;-64
2023/08/22 04:51:56;;;;;;;7.45;4.07;;;16.40;99.90;;;;;;5069534;28;20036;-65
2023/08/22 04:54:22;;;;;;;6.60;3.90;;;16.50;99.90;;;;;;5070086;28;20043;-64
2023/08/22 04:56:48;;;;;;;7.63;5.13;;;16.10;99.90;;;;;;5050422;28;20032;-64
2023/08/22 04:59:13;;;;;;;7.95;5.68;;;15.50;99.90;;;;;;5117707;22;20475;-64
2023/08/22 05:01:39;;;;;;;7.95;4.47;;;15.50;99.90;;;;;;5114428;27;20456;-65
2023/08/22 05:04:05;;;;;;;9.80;5.30;;;15.20;99.90;;;;;;5106414;27;20028;-64
2023/08/22 05:06:31;;;;;;;7.22;3.50;;;15.60;99.90;;;;;;5084682;28;20054;-64
2023/08/22 05:08:56;;;;;;;8.48;4.45;;;16.00;99.90;;;;;;5088005;27;20494;-64
2023/08/22 05:11:22;;;;;;;8.88;4.60;;;15.30;99.90;;;;;;5111239;27;20094;-64
2023/08/22 05:13:48;;;;;;;8.43;5.25;;;16.20;99.90;;;;;;5108339;27;20118;-64
2023/08/22 05:16:13;;;;;;;10.07;5.28;;;16.10;99.90;;;;;;5067905;27;20063;-65
2023/08/22 05:18:39;;;;;;;9.57;4.63;;;15.80;99.90;;;;;;5092209;22;20049;-58
2023/08/22 05:21:05;;;;;;;8.25;5.45;;;15.90;99.90;;;;;;5038365;28;20049;-60
2023/08/22 05:23:31;;;;;;;13.35;6.03;;;;;;;;;;5069387;28;20082;-60
2023/08/22 05:25:57;;;;;;;10.20;7.40;;;16.10;99.90;;;;;;5070164;28;20101;-61
2023/08/22 05:28:22;;;;;;;12.48;7.15;;;16.20;99.90;;;;;;5070322;28;20036;-59
2023/08/22 05:30:48;;;;;;;12.95;7.80;;;16.80;99.90;;;;;;5074689;28;20033;-60
2023/08/22 05:33:14;;;;;;;11.55;6.88;;;16.10;99.90;;;;;;5069795;28;20035;-59
2023/08/22 05:35:39;;;;;;;12.52;7.43;;;16.40;99.90;;;;;;5070992;28;20146;-60
2023/08/22 05:38:05;;;;;;;11.27;7.00;;;16.90;99.90;;;;;;5069155;28;20082;-59
2023/08/22 05:40:30;;;;;;;10.63;7.25;;;16.20;99.90;;;;;;5068538;28;20085;-60
2023/08/22 05:42:56;;;;;;;10.20;6.60;;;16.80;99.90;;;;;;5067906;28;20064;-60
2023/08/22 05:45:22;;;;;;;16.48;8.38;;;16.60;99.90;;;;;;5061468;28;20063;-61
2023/08/22 05:47:48;;;;;;;10.93;8.10;;;;;;;;;;5060195;28;20108;-61
2023/08/22 05:50:14;;;;;;;11.45;7.72;;;16.90;99.90;;;;;;5046613;28;20048;-60
2023/08/22 05:52:43;;;;;;;11.00;6.40;;;18.80;99.90;;;;;;5055469;28;20071;-61
2023/08/22 05:55:09;;;;;;;12.00;8.18;;;;;;;;;;5046681;28;20048;-60
2023/08/22 05:57:35;;;;;;;11.57;7.10;;;16.90;99.90;;;;;;5057922;28;20036;-60
2023/08/22 06:00:03;;;;;;;11.02;6.60;;;;;;;;;;5058894;28;20044;-61
2023/08/22 06:02:28;;;;;;;11.70;8.02;;;17.00;99.90;;;;;;5061174;28;20036;-60
2023/08/22 06:04:55;;;;;;;12.95;7.57;;;17.30;99.90;;;;;;5065742;28;20044;-61
2023/08/22 06:07:21;;;;;;;14.18;7.97;;;17.00;99.90;;;;;;5045476;28;20094;-61
2023/08/22 06:09:46;;;;;;;12.55;8.55;;;17.00;99.90;;;;;;5047954;28;20127;-61
2023/08/22 06:12:12;;;;;;;14.43;8.65;;;17.30;99.90;;;;;;5058158;28;20041;-63
2023/08/22 06:14:38;;;;;;;13.45;8.73;;;17.50;99.90;;;;;;5058141;28;20036;-61
2023/08/22 06:17:04;;;;;;;13.60;7.72;;;17.40;99.90;;;;;;5046828;28;20043;-61
2023/08/22 06:19:30;;;;;;;13.60;8.18;;;17.10;99.90;;;;;;5059375;28;20056;-62
2023/08/22 06:21:55;;;;;;;14.48;8.27;;;17.30;99.90;;;;;;5023637;28;20402;-62
2023/08/22 06:24:21;;;;;;;11.65;8.40;;;17.40;99.90;;;;;;5059067;28;20355;-62
2023/08/22 06:26:48;;;;;;;12.82;8.00;;;18.40;99.90;;;;;;5066029;28;20516;-61
2023/08/22 06:29:15;;;;;;;14.38;8.43;;;;;;;;;;5057436;28;20124;-63
2023/08/22 06:31:43;;;;;;;13.77;8.50;;;18.30;99.40;;;;;;5053839;28;20107;-62
2023/08/22 06:34:08;;;;;;;14.18;8.63;;;17.90;81.70;;;;;;5029298;28;20073;-62
2023/08/22 06:36:34;;;;;;;12.88;8.10;;;18.80;13.60;;;;;;5039160;28;20127;-62
2023/08/22 06:39:00;;;;;;;11.00;7.05;;;18.80;1.00;;;;;;5053416;28;20043;-62
2023/08/22 06:41:27;;;;;;;12.68;8.02;;;;;;;;;;5054390;28;20068;-61
2023/08/22 06:43:53;;;;;;;14.13;7.78;;;19.00;1.00;;;;;;5056897;28;20123;-62
2023/08/22 06:46:21;;;;;;;10.43;7.80;;;17.90;99.90;;;;;;5060430;28;20119;-62
2023/08/22 06:48:48;;;;;;;10.00;7.68;;;18.20;99.90;;;;;;5056059;28;20040;-63
2023/08/22 06:51:14;;;;;;;13.10;7.45;;;18.70;99.90;;;;;;5050421;28;20509;-62
2023/08/22 06:53:39;;;;;;;12.80;7.43;;;19.10;99.90;;;;;;5057612;28;20043;-62
2023/08/22 06:56:05;;;;;;;13.00;7.63;;;18.30;99.90;;;;;;5057633;28;20115;-62
2023/08/22 06:58:30;;;;;;;13.48;6.75;;;19.20;99.90;;;;;;5063928;28;20091;-62
2023/08/22 07:00:57;;;;;;;11.75;6.68;;;19.30;99.90;;;;;;5055407;28;20456;-61
2023/08/22 07:03:22;;;;;;;11.50;6.45;;;18.20;99.90;;;;;;5057500;28;20032;-63
2023/08/22 07:05:52;;;;;;;9.98;6.05;;;19.20;99.90;;;;;;5058095;28;20037;-62
2023/08/22 07:08:19;;;;;;;9.05;5.43;;;18.10;99.90;;;;;;5053596;28;20044;-61
2023/08/22 07:10:45;;;;;;;11.10;6.10;;;18.40;99.90;;;;;;5043323;28;20036;-62
2023/08/22 07:13:10;;;;;;;10.73;5.70;;;19.20;99.90;;;;;;5060593;28;20438;-62
2023/08/22 07:15:36;;;;;;;10.95;6.15;;;18.50;99.90;;;;;;5063783;28;20045;-62
2023/08/22 07:18:02;;;;;;;10.27;5.55;;;19.40;99.90;;;;;;5058254;28;20028;-61
2023/08/22 07:20:28;;;;;;;11.52;6.00;;;19.10;97.90;;;;;;5043934;28;20052;-63
2023/08/22 07:22:53;;;;;;;12.52;6.15;;;18.90;84.70;;;;;;5064226;28;20037;-62
2023/08/22 07:25:19;;;;;;;12.52;6.25;;;19.60;73.30;;;;;;5060742;28;20044;-62
2023/08/22 07:27:45;;;;;;;11.38;5.95;;;19.50;69.30;;;;;;5044970;28;20119;-61
2023/08/22 07:30:11;;;;;;;12.10;7.10;;;19.80;99.90;;;;;;5054562;28;20115;-62
2023/08/22 07:32:36;;;;;;;12.43;6.25;;;19.40;99.90;;;;;;5040657;28;20045;-63
2023/08/22 07:35:02;;;;;;;11.65;6.00;;;19.70;99.90;;;;;;5053327;28;20233;-63
2023/08/22 11:43:47;;;;;;;10.82;7.28;;;;;;;;;;5060756;28;20410;-65
2023/08/22 11:46:19;;;;;;;12.90;6.63;;;;;;;;;;5047782;28;20033;-65
2023/08/22 11:48:45;;;;;;;11.30;5.75;;;;;;;;;;5037236;28;20069;-64
2023/08/22 11:51:19;;;;;;;11.48;6.35;;;;;;;;;;5033977;28;20041;-64
2023/08/22 11:53:46;;;;;;;14.15;6.53;;;;;;;;;;5024234;28;20045;-64
2023/08/22 11:56:13;;;;;;;10.77;5.90;;;;;;;;;;5040124;28;20033;-65
2023/08/22 11:58:54;;;;;;;10.05;5.70;;;24.10;99.90;;;;;;5040534;28;20120;-64
2023/08/22 12:01:22;;;;;;;12.15;6.18;;;24.50;99.90;;;;;;5040869;28;20033;-64
2023/08/22 12:03:47;;;;;;;13.90;5.78;;;23.90;99.90;;;;;;5048702;28;20171;-64
2023/08/22 12:06:15;;;;;;;8.90;5.10;;;24.50;99.90;;;;;;5036096;28;20107;-64
2023/08/22 12:08:41;;;;;;;9.68;4.82;;;23.90;99.90;;;;;;5040180;28;20492;-65
2023/08/22 12:11:07;;;;;;;9.68;4.43;;;24.60;97.40;;;;;;5042426;28;20175;-65
2023/08/22 12:13:33;;;;;;;9.90;4.70;;;24.80;93.80;;;;;;5045130;28;20545;-64
2023/08/22 12:15:59;;;;;;;12.25;5.15;;;24.90;87.50;;;;;;5037837;28;20037;-64
2023/08/22 12:18:29;;;;;;;12.32;5.90;;;24.50;56.80;;;;;;5041242;28;20037;-65
2023/08/22 12:20:55;;;;;;;11.15;5.35;;;24.50;64.20;;;;;;5040754;28;20462;-64
2023/08/22 12:23:21;;;;;;;9.45;5.55;;;24.70;63.90;;;;;;5040708;28;20128;-64
2023/08/22 12:25:46;;;;;;;11.18;4.80;;;24.80;59.70;;;;;;5057404;28;20086;-64
2023/08/22 12:28:14;;;;;;;12.88;6.40;;;25.70;50.30;;;;;;5037454;28;20033;-64
2023/08/22 12:30:40;;;;;;;9.05;5.40;;;27.10;28.90;;;;;;5035439;28;20049;-64
2023/08/22 12:33:08;;;;;;;8.90;5.38;;;27.30;1.00;;;;;;5041840;28;20033;-65
2023/08/22 12:35:36;;;;;;;10.05;4.90;;;27.40;1.00;;;;;;5069227;28;20132;-65
2023/08/22 12:38:05;;;;;;;10.25;5.82;;;28.50;1.00;;;;;;5042360;28;20063;-65
2023/08/22 12:40:31;;;;;;;9.77;5.35;;;28.90;1.00;;;;;;5040110;28;20064;-65
2023/08/22 12:42:58;;;;;;;11.13;5.18;;;28.80;1.00;;;;;;5040270;28;20091;-64
2023/08/22 12:45:24;;;;;;;10.32;5.47;;;29.60;1.00;;;;;;5035618;28;20056;-66
2023/08/22 12:47:50;;;;;;;11.95;5.57;;;30.00;1.00;;;;;;5041205;28;20033;-72
2023/08/22 12:50:16;;;;;;;10.65;6.50;;;30.00;1.00;;;;;;5050427;28;20124;-65
2023/08/22 12:52:42;;;;;;;9.15;5.60;;;29.60;1.00;;;;;;5041055;28;20111;-63
2023/08/22 12:55:08;;;;;;;12.30;6.13;;;29.90;1.00;;;;;;5027370;28;20029;-64
2023/08/22 13:53:42;;;;;;;11.00;5.80;;;32.90;98.90;;;;;;5057111;28;20408;-56
2023/08/22 13:56:09;;;;;;;10.00;6.57;;;33.20;34.90;;;;;;5033191;28;20113;-58
2023/08/22 13:58:35;;;;;;;9.93;5.80;;;33.10;24.90;;;;;;5032826;28;20503;-57
2023/08/22 14:01:01;;;;;;;10.48;6.60;;;31.70;3.90;;;;;;5029108;28;20048;-54
2023/08/22 14:03:26;;;;;;;8.95;6.03;;;32.40;1.40;;;;;;5041450;28;20041;-57
2023/08/22 14:05:52;;;;;;;10.13;6.30;;;33.00;12.00;;;;;;5034341;28;20037;-56
2023/08/22 14:08:17;;;;;;;12.00;6.72;;;34.30;15.30;;;;;;5034985;28;20041;-57
2023/08/22 14:10:43;;;;;;;9.45;5.65;;;33.80;9.40;;;;;;5036234;28;21347;-58
2023/08/22 14:13:09;;;;;;;10.90;6.97;;;34.50;14.70;;;;;;5032977;28;20471;-57
2023/08/22 14:15:34;;;;;;;10.93;5.40;;;34.90;36.10;;;;;;5035468;28;20087;-57
2023/08/22 14:18:00;;;;;;;10.25;5.65;;;36.10;23.10;;;;;;5032002;28;20033;-55
2023/08/22 14:20:25;;;;;;;10.45;5.97;;;36.50;43.30;;;;;;5034217;28;20099;-56
2023/08/22 14:22:51;;;;;;;9.13;5.32;;;35.70;59.00;;;;;;5033708;28;20561;-54
2023/08/22 14:25:17;;;;;;;10.65;5.57;;;35.10;42.30;;;;;;5032540;28;20078;-53
2023/08/22 14:27:44;;;;;;;10.85;5.55;;;37.00;43.70;;;;;;5041405;28;20067;-57
2023/08/22 14:30:12;;;;;;;10.45;6.18;;;37.60;49.20;;;;;;5032625;28;20065;-55
2023/08/22 14:32:38;;;;;;;9.90;5.32;;;37.20;50.80;;;;;;5033883;28;20041;-54
2023/08/22 14:35:04;;;;;;;8.73;5.75;;;34.90;77.10;;;;;;5034760;28;20037;-56
2023/08/22 14:37:29;;;;;;;9.65;5.60;;;33.40;62.50;;;;;;5034626;28;20059;-55
2023/08/22 14:39:55;;;;;;;10.20;5.72;;;34.90;77.80;;;;;;5040261;28;20114;-54
2023/08/22 14:42:21;;;;;;;9.52;5.38;;;34.70;72.60;;;;;;5038630;28;20078;-53
2023/08/22 14:44:47;;;;;;;9.93;5.13;;;35.90;71.00;;;;;;5035470;28;20045;-57
2023/08/22 14:47:12;;;;;;;8.75;4.55;;;36.20;66.50;;;;;;5040208;28;20116;-56
2023/08/22 14:49:38;;;;;;;8.75;5.25;;;37.00;68.00;;;;;;5023230;28;20479;-55
2023/08/22 14:52:04;;;;;;;8.95;5.05;;;37.50;78.00;;;;;;5041273;28;20095;-56
2023/08/22 14:54:29;;;;;;;8.48;4.30;;;38.00;72.90;;;;;;5033440;28;20467;-55
2023/08/22 14:56:55;;;;;;;9.10;4.30;;;37.80;81.80;;;;;;5036248;28;20029;-53
2023/08/22 14:59:21;;;;;;;8.40;5.22;;;38.50;77.00;;;;;;5040151;28;20044;-55
2023/08/22 15:01:47;;;;;;;8.27;4.25;;;38.60;76.70;;;;;;5037826;28;20457;-54
2023/08/22 15:04:12;;;;;;;7.93;4.68;;;38.70;57.50;;;;;;5032081;28;20044;-57
2023/08/22 15:06:38;;;;;;;7.28;4.30;;;38.60;63.90;;;;;;5020357;28;20487;-56
2023/08/22 15:09:04;;;;;;;9.90;5.13;;;37.90;70.90;;;;;;5021010;28;20128;-55
2023/08/22 15:11:29;;;;;;;11.30;7.47;;;37.00;67.50;;;;;;5019325;28;20128;-57
2023/08/22 15:13:55;;;;;;;18.70;12.70;;;36.00;61.30;;;;;;5020373;28;20096;-55
2023/08/22 15:16:21;;;;;;;24.52;17.75;;;35.80;53.40;;;;;;5016080;28;20036;-56
2023/08/22 15:18:46;;;;;;;33.17;23.38;;;34.00;47.60;;;;;;5023373;28;20057;-55
2023/08/22 15:21:12;;;;;;;24.88;15.90;;;34.40;50.70;;;;;;5026822;28;20120;-57
2023/08/22 15:23:41;;;;;;;16.15;10.30;;;33.80;46.10;;;;;;5029502;28;20068;-57
2023/08/22 15:26:07;;;;;;;14.90;11.13;;;33.80;46.70;;;;;;5028440;28;20067;-56
2023/08/22 15:28:33;;;;;;;12.27;7.53;;;33.20;41.20;;;;;;5029787;28;20118;-57
2023/08/22 15:30:59;;;;;;;9.93;6.10;;;32.50;36.00;;;;;;5030191;28;20057;-57
2023/08/22 15:33:28;;;;;;;12.18;6.05;;;31.70;34.80;;;;;;5028970;28;20133;-55
2023/08/22 15:35:59;;;;;;;9.88;6.15;;;31.60;38.10;;;;;;5029557;28;20553;-58
2023/08/22 15:38:33;;;;;;;11.43;5.95;;;31.30;35.80;;;;;;5029740;28;20117;-57
2023/08/22 15:41:00;;;;;;;9.25;4.55;;;30.40;29.90;;;;;;5027308;28;20072;-57
2023/08/22 15:43:26;;;;;;;8.07;4.30;;;30.90;36.90;;;;;;5024219;28;20552;-57
2023/08/22 15:45:52;;;;;;;8.02;3.40;;;30.20;28.60;;;;;;5029474;28;20068;-57
2023/08/22 15:48:18;;;;;;;7.50;4.13;;;31.20;32.10;;;;;;5028714;28;20487;-57
2023/08/22 15:50:44;;;;;;;6.53;3.08;;;31.60;40.80;;;;;;5025656;28;20509;-57
2023/08/22 15:53:10;;;;;;;6.35;3.30;;;32.10;49.70;;;;;;5021132;28;20105;-57
2023/08/22 15:55:35;;;;;;;7.50;3.90;;;31.70;45.50;;;;;;5023393;28;20045;-57
2023/08/22 15:58:02;;;;;;;6.65;3.72;;;31.90;59.20;;;;;;5027758;28;20034;-57
2023/08/22 16:00:28;;;;;;;11.18;4.70;;;32.30;57.30;;;;;;5025605;28;20075;-57
2023/08/22 16:02:54;;;;;;;7.90;3.70;;;31.70;99.60;;;;;;5023207;28;20038;-57
2023/08/22 16:05:19;;;;;;;8.52;3.30;;;31.80;98.00;;;;;;5027824;28;20409;-57
2023/08/22 16:07:45;;;;;;;7.07;2.95;;;31.60;92.60;;;;;;5022176;28;20041;-58
2023/08/22 16:10:11;;;;;;;7.95;3.50;;;31.40;90.30;;;;;;5023139;28;20034;-57
2023/08/22 16:12:36;;;;;;;8.90;2.65;;;30.10;82.20;;;;;;5020170;28;20033;-58
2023/08/22 16:15:02;;;;;;;7.07;2.65;;;29.70;70.10;;;;;;5025165;28;20042;-58
2023/08/22 16:17:28;;;;;;;6.40;2.92;;;29.80;72.40;;;;;;5021914;28;20033;-58
2023/08/22 16:19:54;;;;;;;6.05;2.53;;;28.20;65.90;;;;;;5006300;28;20060;-58
2023/08/22 16:22:20;;;;;;;7.03;2.63;;;27.70;67.40;;;;;;5027462;28;20033;-58
2023/08/22 16:24:46;;;;;;;6.88;2.25;;;27.30;99.90;;;;;;5027575;28;20176;-58
2023/08/22 16:27:12;;;;;;;8.07;2.40;;;26.90;99.90;;;;;;5024880;28;20033;-58
2023/08/22 16:29:37;;;;;;;6.18;2.50;;;27.00;99.90;;;;;;5023647;28;20120;-57
2023/08/22 16:32:04;;;;;;;7.30;2.83;;;27.40;99.90;;;;;;5026442;28;20030;-58
2023/08/22 16:34:30;;;;;;;8.88;3.40;;;27.30;99.90;;;;;;5021270;28;20064;-58
2023/08/22 16:36:55;;;;;;;8.75;3.28;;;27.10;99.90;;;;;;5023858;28;20033;-58
2023/08/22 16:39:21;;;;;;;7.75;2.80;;;26.20;99.90;;;;;;5023542;28;20037;-58
2023/08/22 16:41:48;;;;;;;9.25;4.03;;;26.40;99.90;;;;;;5023395;28;20037;-58
2023/08/22 16:44:14;;;;;;;7.38;2.97;;;26.10;99.90;;;;;;5020055;28;20507;-58
2023/08/22 16:46:39;;;;;;;6.30;2.63;;;25.80;99.90;;;;;;5018007;28;20041;-59
2023/08/22 16:49:07;;;;;;;5.80;2.58;;;25.90;99.90;;;;;;5026787;28;20126;-59
2023/08/22 16:51:33;;;;;;;8.02;2.90;;;25.50;99.90;;;;;;5023211;28;20064;-59
2023/08/22 16:53:58;;;;;;;10.77;3.53;;;25.20;99.90;;;;;;5028426;28;20029;-58
2023/08/22 16:56:24;;;;;;;6.45;2.42;;;24.40;99.90;;;;;;5026126;28;20073;-58
2023/08/22 16:58:50;;;;;;;5.72;1.85;;;24.40;99.90;;;;;;5026473;28;20081;-57
2023/08/22 17:01:17;;;;;;;5.57;2.05;;;24.10;99.90;;;;;;5024054;28;20033;-58
2023/08/22 17:03:43;;;;;;;6.20;2.60;;;24.30;99.90;;;;;;5028148;28;20084;-59
2023/08/22 17:06:12;;;;;;;8.13;2.70;;;25.10;99.90;;;;;;5024432;28;20116;-59
2023/08/22 17:08:38;;;;;;;6.82;2.50;;;24.50;99.90;;;;;;5025748;28;20110;-59
2023/08/22 17:11:07;;;;;;;6.38;3.28;;;24.40;99.90;;;;;;5028053;28;20117;-58
2023/08/22 17:13:35;;;;;;;7.65;2.90;;;23.60;99.90;;;;;;5028034;28;20442;-58
2023/08/22 17:16:00;;;;;;;5.15;2.20;;;23.90;99.90;;;;;;5023739;28;20088;-57
2023/08/22 17:18:26;;;;;;;5.45;2.00;;;23.80;99.90;;;;;;5028007;28;20367;-58
2023/08/22 17:20:51;;;;;;;6.28;2.67;;;23.40;99.90;;;;;;5026496;28;20048;-59
2023/08/22 17:23:17;;;;;;;6.55;2.20;;;23.30;99.90;;;;;;5028556;28;20075;-57
2023/08/22 17:25:43;;;;;;;5.95;1.80;;;23.20;99.90;;;;;;5027947;28;20411;-58
2023/08/22 17:28:08;;;;;;;6.53;2.42;;;23.50;99.90;;;;;;5028116;28;20048;-58
2023/08/22 17:30:37;;;;;;;5.82;2.60;;;23.20;99.90;;;;;;5019884;28;20037;-58
2023/08/22 17:33:03;;;;;;;8.82;2.90;;;23.40;99.90;;;;;;5025111;28;20436;-57
2023/08/22 17:35:29;;;;;;;6.97;2.40;;;23.20;99.90;;;;;;5027694;28;20040;-58
2023/08/22 17:37:54;;;;;;;8.07;2.30;;;23.20;99.90;;;;;;5027929;28;20107;-57
2023/08/22 17:40:21;;;;;;;6.78;2.55;;;23.20;99.90;;;;;;5027565;28;20387;-58
2023/08/22 17:42:47;;;;;;;5.53;2.42;;;22.80;99.90;;;;;;5029043;28;20045;-58
2023/08/22 17:45:12;;;;;;;5.97;2.30;;;22.80;99.90;;;;;;5028261;28;20044;-58